Time;durP1;ratioP1;P1;durP2;ratioP2;P2;SDS_P1;SDS_P2;PMS_P1;PMS_P2;Temp;Humidity;BMP_temperature;BMP_pressure;BME280_temperature;BME280_humidity;BME280_pressure;Samples;Min_cycle;Max_cycle;Signal;HPM_P1;HPM_P2
2024/01/12 00:01:04;;;;;;;125.45;27.10;;;;;;;-1.73;100.00;102518.28;7401504;19;20028;-67
2024/01/12 00:03:33;;;;;;;128.20;28.55;;;;;;;-1.72;100.00;102520.97;7399714;19;20017;-67
2024/01/12 00:06:01;;;;;;;131.77;27.95;;;;;;;-1.71;100.00;102527.88;7398507;19;20019;-67
2024/01/12 00:08:30;;;;;;;140.63;27.38;;;;;;;-1.74;100.00;102519.13;7398225;19;20582;-67
2024/01/12 00:10:59;;;;;;;130.40;27.23;;;;;;;-1.68;100.00;102522.00;7400031;19;20014;-67
2024/01/12 00:13:30;;;;;;;127.35;27.08;;;;;;;-1.68;100.00;102525.50;7399732;19;20045;-67
2024/01/12 00:15:58;;;;;;;124.88;26.33;;;;;;;-1.69;100.00;102534.00;7398472;19;20383;-66
2024/01/12 00:18:27;;;;;;;135.65;26.23;;;;;;;-1.68;100.00;102527.16;7401006;19;20015;-67
2024/01/12 00:20:55;;;;;;;126.20;26.52;;;;;;;-1.67;100.00;102523.78;7400955;19;20011;-67
2024/01/12 00:23:24;;;;;;;131.60;26.77;;;;;;;-1.65;100.00;102519.63;7399308;19;20018;-67
2024/01/12 00:25:59;;;;;;;118.25;26.20;;;;;;;-1.65;100.00;102524.78;7401236;19;20018;-67
2024/01/12 00:28:32;;;;;;;117.65;27.50;;;;;;;-1.66;100.00;102521.28;7400736;19;20031;-67
2024/01/12 00:31:00;;;;;;;125.03;28.20;;;;;;;-1.65;100.00;102517.94;7401001;19;20034;-67
2024/01/12 00:33:29;;;;;;;123.18;28.00;;;;;;;-1.65;100.00;102527.34;7399258;19;20010;-67
2024/01/12 00:35:57;;;;;;;115.95;26.40;;;;;;;-1.65;100.00;102530.78;7400112;19;20375;-67
2024/01/12 00:38:25;;;;;;;124.88;25.00;;;;;;;-1.64;100.00;102530.00;7400446;19;20010;-67
2024/01/12 00:40:54;;;;;;;125.13;26.23;;;;;;;-1.64;100.00;102532.56;7397424;19;20372;-67
2024/01/12 00:43:22;;;;;;;124.20;26.35;;;;;;;-1.62;100.00;102527.50;7397427;19;20011;-67
2024/01/12 00:45:53;;;;;;;121.25;26.85;;;;;;;-1.61;100.00;102537.00;7400184;19;20035;-67
2024/01/12 00:48:22;;;;;;;118.28;26.75;;;;;;;-1.60;100.00;102536.22;7400434;19;20014;-67
2024/01/12 00:50:50;;;;;;;135.80;27.13;;;;;;;-1.59;100.00;102540.56;7398991;19;20473;-67
2024/01/12 00:53:19;;;;;;;121.95;26.23;;;;;;;-1.59;100.00;102538.00;7398865;19;20014;-67
2024/01/12 00:55:47;;;;;;;111.78;26.50;;;;;;;-1.58;100.00;102542.34;7397485;19;20015;-67
2024/01/12 00:58:16;;;;;;;131.07;26.50;;;;;;;-1.57;100.00;102546.66;7399361;19;20027;-67
2024/01/12 01:00:44;;;;;;;115.82;25.00;;;;;;;-1.57;100.00;102551.81;7397288;19;20035;-67
2024/01/12 01:03:15;;;;;;;118.60;26.70;;;;;;;-1.57;100.00;102546.66;7398807;19;20127;-67
2024/01/12 01:05:44;;;;;;;112.30;25.73;;;;;;;-1.56;100.00;102545.88;7399197;19;20426;-67
2024/01/12 01:08:12;;;;;;;103.90;24.98;;;;;;;-1.56;100.00;102550.16;7399408;19;20010;-67
2024/01/12 01:10:41;;;;;;;109.00;24.85;;;;;;;-1.56;100.00;102545.88;7399393;19;20371;-67
2024/01/12 01:13:10;;;;;;;105.97;24.02;;;;;;;-1.55;100.00;102546.78;7396523;19;20031;-67
2024/01/12 01:15:38;;;;;;;116.03;25.63;;;;;;;-1.55;100.00;102544.22;7399126;19;20018;-67
2024/01/12 01:18:07;;;;;;;109.22;25.45;;;;;;;-1.54;100.00;102540.81;7396711;19;20015;-67
2024/01/12 01:20:38;;;;;;;106.20;23.92;;;;;;;-1.55;100.00;102537.38;7396785;19;20096;-67
2024/01/12 01:23:07;;;;;;;112.35;27.17;;;;;;;-1.55;100.00;102536.50;7398078;19;20018;-67
2024/01/12 01:25:36;;;;;;;103.65;23.98;;;;;;;-1.56;100.00;102532.13;7396678;19;20010;-67
2024/01/12 01:28:04;;;;;;;103.35;24.90;;;;;;;-1.57;100.00;102523.50;7398752;19;20031;-67
2024/01/12 01:30:33;;;;;;;98.07;22.83;;;;;;;-1.58;100.00;102516.59;7398681;19;20035;-67
2024/01/12 01:33:01;;;;;;;106.72;25.77;;;;;;;-1.57;100.00;102517.47;7397848;19;20038;-67
2024/01/12 01:35:30;;;;;;;105.65;24.13;;;;;;;-1.58;100.00;102516.59;7398071;19;20517;-67
2024/01/12 01:38:01;;;;;;;112.50;27.17;;;;;;;-1.59;100.00;102519.97;7398410;19;20070;-67
2024/01/12 01:40:29;;;;;;;113.68;24.60;;;;;;;-1.59;100.00;102519.97;7398756;19;20079;-67
2024/01/12 01:42:58;;;;;;;106.72;25.25;;;;;;;-1.59;100.00;102516.50;7397624;19;20022;-67
2024/01/12 01:45:26;;;;;;;104.10;25.17;;;;;;;-1.59;100.00;102517.41;7398225;19;20015;-67
2024/01/12 01:47:55;;;;;;;110.43;26.25;;;;;;;-1.59;100.00;102512.25;7397734;19;20023;-67
2024/01/12 01:50:23;;;;;;;98.80;25.20;;;;;;;-1.59;100.00;102507.09;7396052;19;20014;-66
2024/01/12 01:52:52;;;;;;;98.97;24.40;;;;;;;-1.58;100.00;102514.03;7397074;19;20479;-67
2024/01/12 01:55:23;;;;;;;97.55;24.65;;;;;;;-1.58;100.00;102511.47;7396170;19;20031;-67
2024/01/12 01:57:53;;;;;;;97.45;25.77;;;;;;;-1.57;100.00;102513.22;7397793;19;20379;-67
2024/01/12 02:00:21;;;;;;;89.10;21.88;;;;;;;-1.57;100.00;102502.91;7397215;19;20014;-67
2024/01/12 02:02:50;;;;;;;91.30;23.50;;;;;;;-1.56;100.00;102507.25;7395367;19;20031;-67
2024/01/12 02:05:21;;;;;;;91.38;23.05;;;;;;;-1.54;100.00;102515.97;7397229;19;20473;-67
2024/01/12 02:07:56;;;;;;;95.95;23.23;;;;;;;-1.54;100.00;102503.09;7397005;19;20476;-67
2024/01/12 02:10:27;;;;;;;102.57;25.20;;;;;;;-1.53;100.00;102515.19;7397474;19;20415;-67
2024/01/12 02:12:57;;;;;;;95.88;24.38;;;;;;;-1.53;100.00;102515.19;7397124;19;20011;-67
2024/01/12 02:15:25;;;;;;;93.78;23.23;;;;;;;-1.51;100.00;102522.97;7395292;19;20078;-67
2024/01/12 02:17:54;;;;;;;86.75;25.40;;;;;;;-1.51;100.00;102530.69;7397129;19;20020;-67
2024/01/12 02:20:22;;;;;;;108.45;26.23;;;;;;;-1.51;100.00;102520.41;7397031;19;20019;-67
2024/01/12 02:22:53;;;;;;;93.47;23.02;;;;;;;-1.51;100.00;102523.84;7396206;19;20466;-67
2024/01/12 02:25:22;;;;;;;108.10;26.63;;;;;;;-1.51;100.00;102522.97;7395442;19;20019;-67
2024/01/12 02:27:51;;;;;;;91.63;24.33;;;;;;;-1.52;100.00;102506.63;7396317;19;20481;-67
2024/01/12 02:30:20;;;;;;;109.22;27.05;;;;;;;-1.52;100.00;102495.47;7398696;19;20427;-67
2024/01/12 02:32:49;;;;;;;104.35;25.88;;;;;;;-1.53;100.00;102494.59;7395936;19;20470;-67
2024/01/12 02:35:17;;;;;;;103.60;25.08;;;;;;;-1.53;100.00;102501.41;7394615;19;20027;-67
2024/01/12 02:37:46;;;;;;;95.70;24.45;;;;;;;-1.55;100.00;102496.19;7396417;19;20019;-67
2024/01/12 02:40:17;;;;;;;107.50;26.45;;;;;;;-1.54;100.00;102508.25;7396380;19;20376;-67
2024/01/12 02:42:45;;;;;;;113.93;23.17;;;;;;;-1.54;100.00;102500.53;7396402;19;20014;-67
2024/01/12 02:45:13;;;;;;;99.07;24.67;;;;;;;-1.55;100.00;102493.59;7395892;19;20478;-67
2024/01/12 02:47:42;;;;;;;94.70;23.50;;;;;;;-1.56;100.00;102490.94;7396144;19;20018;-67
2024/01/12 02:50:11;;;;;;;107.22;23.23;;;;;;;-1.58;100.00;102500.25;7396060;19;20006;-67
2024/01/12 02:52:39;;;;;;;90.28;23.23;;;;;;;-1.57;100.00;102499.47;7394251;19;20170;-67
2024/01/12 02:55:09;;;;;;;102.20;24.38;;;;;;;-1.60;100.00;102497.59;7394242;19;20035;-67
2024/01/12 02:57:40;;;;;;;118.38;24.58;;;;;;;-1.61;100.00;102495.81;7395465;19;20019;-67
2024/01/12 03:00:10;;;;;;;106.65;24.90;;;;;;;-1.62;100.00;102494.03;7395870;19;20018;-67
2024/01/12 03:02:38;;;;;;;98.75;25.02;;;;;;;-1.62;100.00;102504.34;7394101;19;20042;-68
2024/01/12 03:05:08;;;;;;;104.75;25.00;;;;;;;-1.62;100.00;102506.91;7395199;19;20477;-67
2024/01/12 03:07:37;;;;;;;108.57;26.27;;;;;;;-1.63;100.00;102505.16;7395510;19;20022;-67
2024/01/12 03:10:06;;;;;;;118.75;25.85;;;;;;;-1.64;100.00;102506.84;7395440;19;20011;-67
2024/01/12 03:12:35;;;;;;;100.28;25.92;;;;;;;-1.62;100.00;102503.47;7394989;19;20010;-67
2024/01/12 03:15:07;;;;;;;104.07;25.15;;;;;;;-1.63;100.00;102494.88;7394239;19;20023;-68
2024/01/12 03:17:35;;;;;;;103.25;23.88;;;;;;;-1.62;100.00;102495.75;7394470;19;20086;-67
2024/01/12 03:20:05;;;;;;;93.70;23.75;;;;;;;-1.62;100.00;102488.91;7394444;19;20018;-67
2024/01/12 03:22:33;;;;;;;120.78;22.92;;;;;;;-1.64;100.00;102482.81;7395388;19;20050;-67
2024/01/12 03:25:01;;;;;;;106.90;24.05;;;;;;;-1.65;100.00;102493.88;7392765;19;20014;-67
2024/01/12 03:27:30;;;;;;;97.47;23.60;;;;;;;-1.68;100.00;102496.28;7395003;19;20027;-67
2024/01/12 03:29:59;;;;;;;96.15;23.38;;;;;;;-1.67;100.00;102503.19;7394980;19;20019;-67
2024/01/12 03:32:30;;;;;;;105.72;22.95;;;;;;;-1.68;100.00;102502.31;7394507;19;20486;-67
2024/01/12 03:34:58;;;;;;;113.10;23.85;;;;;;;-1.70;100.00;102495.31;7392542;19;20027;-67
2024/01/12 03:37:27;;;;;;;113.95;23.20;;;;;;;-1.73;100.00;102496.03;7392880;19;20011;-67
2024/01/12 03:39:55;;;;;;;140.50;23.38;;;;;;;-1.75;100.00;102504.47;7392837;19;20023;-67
2024/01/12 03:42:24;;;;;;;110.90;22.60;;;;;;;-1.77;100.00;102504.34;7394578;19;20011;-67
2024/01/12 03:44:52;;;;;;;110.43;24.05;;;;;;;-1.76;100.00;102508.72;7392528;19;20032;-67
2024/01/12 03:47:21;;;;;;;136.55;23.90;;;;;;;-1.75;100.00;102500.19;7394473;19;20018;-67
2024/01/12 03:49:52;;;;;;;141.80;22.95;;;;;;;-1.75;100.00;102492.47;7394368;19;20027;-67
2024/01/12 03:52:20;;;;;;;89.68;22.50;;;;;;;-1.73;100.00;102492.56;7392477;19;20370;-67
2024/01/12 03:54:49;;;;;;;112.20;22.92;;;;;;;-1.73;100.00;102497.69;7392193;19;20015;-67
2024/01/12 03:57:17;;;;;;;96.18;23.88;;;;;;;-1.71;100.00;102496.09;7392184;19;20023;-67
2024/01/12 03:59:46;;;;;;;101.05;23.67;;;;;;;-1.70;100.00;102474.72;7391824;19;20011;-67
2024/01/12 04:02:14;;;;;;;97.18;22.23;;;;;;;-1.67;100.00;102469.75;7392077;19;20031;-67
2024/01/12 04:04:43;;;;;;;86.88;22.90;;;;;;;-1.67;100.00;102455.19;7391472;19;20477;-67
2024/01/12 04:07:14;;;;;;;106.82;21.05;;;;;;;-1.68;100.00;102456.00;7393472;19;20007;-67
2024/01/12 04:09:44;;;;;;;113.35;22.42;;;;;;;-1.68;100.00;102452.53;7393657;19;20027;-67
2024/01/12 04:12:12;;;;;;;115.20;21.92;;;;;;;-1.69;100.00;102456.78;7392654;19;20027;-67
2024/01/12 04:14:41;;;;;;;135.93;23.70;;;;;;;-1.71;100.00;102460.09;7391482;19;20014;-68
2024/01/12 04:17:09;;;;;;;113.78;22.38;;;;;;;-1.74;100.00;102459.94;7390878;19;20074;-67
2024/01/12 04:19:38;;;;;;;110.22;23.80;;;;;;;-1.74;100.00;102452.19;7393278;19;20540;-67
2024/01/12 04:22:06;;;;;;;87.68;21.23;;;;;;;-1.76;100.00;102446.94;7393577;19;20021;-67
2024/01/12 04:24:37;;;;;;;98.13;20.60;;;;;;;-1.76;100.00;102449.53;7390809;19;20094;-67
2024/01/12 04:27:06;;;;;;;96.95;21.63;;;;;;;-1.78;100.00;102448.56;7396690;19;20433;-67
2024/01/12 04:29:35;;;;;;;97.28;21.52;;;;;;;-1.78;100.00;102445.09;7400713;19;20035;-67
2024/01/12 04:32:03;;;;;;;116.13;22.65;;;;;;;-1.78;100.00;102460.53;7400657;19;20070;-67
2024/01/12 04:34:31;;;;;;;94.07;23.02;;;;;;;-1.77;100.00;102467.47;7397724;19;20086;-67
2024/01/12 04:37:00;;;;;;;92.63;22.48;;;;;;;-1.78;100.00;102466.59;7397972;19;20078;-67
2024/01/12 04:39:28;;;;;;;100.47;24.00;;;;;;;-1.74;100.00;102462.50;7400372;19;20019;-67
2024/01/12 04:41:59;;;;;;;87.25;21.50;;;;;;;-1.75;100.00;102451.28;7397770;19;20030;-67
2024/01/12 04:44:28;;;;;;;96.93;19.50;;;;;;;-1.75;100.00;102455.56;7397632;19;20078;-67
2024/01/12 04:46:56;;;;;;;82.68;20.35;;;;;;;-1.74;100.00;102449.63;7398555;19;20481;-67
2024/01/12 04:49:25;;;;;;;80.50;19.98;;;;;;;-1.74;100.00;102449.63;7398613;19;20070;-67
2024/01/12 04:51:53;;;;;;;94.03;21.05;;;;;;;-1.74;100.00;102452.19;7399575;19;20498;-67
2024/01/12 04:54:22;;;;;;;95.85;21.00;;;;;;;-1.73;100.00;102444.56;7397650;19;20094;-67
2024/01/12 04:56:50;;;;;;;89.03;20.23;;;;;;;-1.72;100.00;102438.63;7399517;19;20083;-67
2024/01/12 04:59:21;;;;;;;91.78;21.67;;;;;;;-1.71;100.00;102442.06;7399134;19;20062;-67
2024/01/12 05:01:49;;;;;;;104.80;22.70;;;;;;;-1.69;100.00;102443.06;7400055;19;20066;-67
2024/01/12 05:04:18;;;;;;;85.97;22.63;;;;;;;-1.68;100.00;102444.78;7397260;19;20078;-67
2024/01/12 05:06:46;;;;;;;93.03;21.00;;;;;;;-1.67;100.00;102447.47;7399256;19;20010;-67
2024/01/12 05:09:15;;;;;;;112.00;22.75;;;;;;;-1.66;100.00;102445.78;7399053;19;20028;-66
2024/01/12 05:11:44;;;;;;;98.85;22.17;;;;;;;-1.65;100.00;102452.72;7399437;19;20015;-67
2024/01/12 05:14:12;;;;;;;99.45;23.42;;;;;;;-1.64;100.00;102450.22;7397479;19;20022;-67
2024/01/12 05:16:43;;;;;;;107.22;26.70;;;;;;;-1.61;100.00;102449.50;7398938;19;20010;-67
2024/01/12 05:19:12;;;;;;;103.28;24.95;;;;;;;-1.59;100.00;102457.28;7398422;19;20516;-67
2024/01/12 05:21:41;;;;;;;103.03;27.73;;;;;;;-1.58;100.00;102456.50;7398289;19;20078;-67
2024/01/12 05:24:09;;;;;;;117.50;25.25;;;;;;;-1.58;100.00;102452.25;7396598;19;20135;-67
2024/01/12 05:26:37;;;;;;;101.00;25.45;;;;;;;-1.55;100.00;102448.97;7396177;19;20074;-67
2024/01/12 05:29:08;;;;;;;106.50;24.92;;;;;;;-1.55;100.00;102447.25;7398962;19;20027;-67
2024/01/12 05:31:36;;;;;;;102.18;22.75;;;;;;;-1.54;100.00;102449.03;7398608;19;20038;-67
2024/01/12 05:34:08;;;;;;;106.03;23.30;;;;;;;-1.58;100.00;102447.09;7396949;19;20066;-67
2024/01/12 05:36:36;;;;;;;109.03;24.40;;;;;;;-1.52;100.00;102449.13;7396513;19;20014;-67
2024/01/12 05:39:05;;;;;;;103.95;25.13;;;;;;;-1.51;100.00;102456.06;7393260;19;20066;-67
2024/01/12 05:41:33;;;;;;;105.78;22.95;;;;;;;-1.52;100.00;102462.88;7397696;19;20475;-67
2024/01/12 05:44:02;;;;;;;98.03;23.25;;;;;;;-1.51;100.00;102468.91;7396751;19;20070;-67
2024/01/12 05:46:30;;;;;;;137.48;38.50;;;;;;;-1.51;100.00;102471.50;7394770;19;20493;-67
2024/01/12 05:49:00;;;;;;;116.05;27.33;;;;;;;-1.48;100.00;102479.38;7397812;19;20056;-67
2024/01/12 05:51:31;;;;;;;117.88;26.58;;;;;;;-1.46;100.00;102479.47;7397658;19;20018;-67
2024/01/12 05:54:00;;;;;;;122.50;27.58;;;;;;;-1.47;100.00;102478.56;7395695;19;20043;-67
2024/01/12 05:56:28;;;;;;;112.75;27.23;;;;;;;-1.45;100.00;102479.56;7395455;19;20033;-67
2024/01/12 05:58:57;;;;;;;109.72;26.75;;;;;;;-1.45;100.00;102477.00;7396287;19;20066;-67
2024/01/12 06:01:25;;;;;;;102.43;27.73;;;;;;;-1.45;100.00;102474.41;7397335;19;20086;-67
2024/01/12 06:03:53;;;;;;;115.30;28.58;;;;;;;-1.44;100.00;102465.00;7395420;19;20029;-67
2024/01/12 06:06:22;;;;;;;103.30;26.55;;;;;;;-1.43;100.00;102465.06;7396964;19;20015;-67
2024/01/12 06:08:53;;;;;;;101.47;27.17;;;;;;;-1.42;100.00;102468.53;7395098;19;20011;-67
2024/01/12 06:11:21;;;;;;;88.45;24.60;;;;;;;-1.40;100.00;102465.25;7397663;19;20011;-67
2024/01/12 06:13:50;;;;;;;90.15;23.92;;;;;;;-1.40;100.00;102466.91;7395313;19;20014;-67
2024/01/12 06:16:18;;;;;;;84.75;24.45;;;;;;;-1.39;100.00;102469.59;7394841;19;20478;-67
2024/01/12 06:18:47;;;;;;;91.25;23.80;;;;;;;-1.38;100.00;102471.38;7394663;19;20069;-67
2024/01/12 06:21:15;;;;;;;90.97;23.85;;;;;;;-1.39;100.00;102479.00;7397021;19;20034;-72
2024/01/12 06:23:44;;;;;;;95.70;22.45;;;;;;;-1.37;100.00;102485.13;7394941;19;20027;-68
2024/01/12 06:26:21;;;;;;;86.90;24.88;;;;;;;-1.37;100.00;102487.72;7394876;19;20027;-67
2024/01/12 06:28:50;;;;;;;85.55;23.63;;;;;;;-1.37;100.00;102480.84;7394037;19;20082;-67
2024/01/12 06:31:18;;;;;;;85.85;22.25;;;;;;;-1.36;100.00;102476.59;7395996;19;20032;-67
2024/01/12 06:33:47;;;;;;;92.22;23.05;;;;;;;-1.37;100.00;102488.59;7395014;19;20011;-67
2024/01/12 06:36:15;;;;;;;75.60;21.15;;;;;;;-1.36;100.00;102484.34;7394052;19;20014;-67
2024/01/12 06:38:43;;;;;;;69.95;20.52;;;;;;;-1.35;100.00;102476.69;7395967;19;20157;-66
2024/01/12 06:41:12;;;;;;;83.68;22.75;;;;;;;-1.33;100.00;102474.19;7395316;19;20090;-67
2024/01/12 06:43:43;;;;;;;78.65;20.88;;;;;;;-1.32;100.00;102469.13;7394322;19;20541;-67
2024/01/12 06:46:11;;;;;;;74.28;20.40;;;;;;;-1.31;100.00;102475.16;7396594;19;20025;-66
2024/01/12 06:48:40;;;;;;;69.25;19.23;;;;;;;-1.32;100.00;102474.25;7395895;19;20577;-66
2024/01/12 06:51:08;;;;;;;66.97;20.08;;;;;;;-1.32;100.00;102471.69;7396809;19;20018;-66
2024/01/12 06:53:37;;;;;;;64.00;19.23;;;;;;;-1.31;100.00;102467.44;7394996;19;20015;-64
2024/01/12 06:56:06;;;;;;;63.35;20.80;;;;;;;-1.31;100.00;102477.75;7394248;19;20010;-64
2024/01/12 06:58:35;;;;;;;58.13;18.73;;;;;;;-1.31;100.00;102475.16;7396336;19;20014;-64
2024/01/12 07:01:06;;;;;;;52.22;17.15;;;;;;;-1.31;100.00;102476.03;7395043;19;20415;-63
2024/01/12 07:03:34;;;;;;;55.85;17.27;;;;;;;-1.31;100.00;102483.78;7394568;19;20074;-63
2024/01/12 07:06:03;;;;;;;54.13;17.48;;;;;;;-1.31;100.00;102482.91;7395503;19;20502;-63
2024/01/12 07:08:31;;;;;;;52.00;17.70;;;;;;;-1.32;100.00;102469.13;7395437;19;20031;-65
2024/01/12 07:11:00;;;;;;;52.88;16.90;;;;;;;-1.30;100.00;102471.81;7395187;19;20074;-63
2024/01/12 07:13:28;;;;;;;58.45;19.05;;;;;;;-1.31;100.00;102477.75;7393861;19;20082;-64
2024/01/12 07:15:57;;;;;;;50.38;16.73;;;;;;;-1.31;100.00;102475.16;7394160;19;20074;-62
2024/01/12 07:18:28;;;;;;;51.50;17.10;;;;;;;-1.29;100.00;102477.81;7393258;19;20082;-67
2024/01/12 07:20:57;;;;;;;52.88;16.33;;;;;;;-1.27;100.00;102474.53;7395554;19;20090;-65
2024/01/12 07:23:30;;;;;;;51.13;16.40;;;;;;;-1.25;100.00;102467.78;7393370;19;20015;-64
2024/01/12 07:25:59;;;;;;;45.92;14.45;;;;;;;-1.24;100.00;102463.50;7393642;19;20100;-64
2024/01/12 07:28:27;;;;;;;37.70;14.15;;;;;;;-1.25;100.00;102461.72;7394898;19;20078;-64
2024/01/12 07:30:56;;;;;;;41.42;14.23;;;;;;;-1.27;100.00;102464.22;7394186;19;20027;-64
2024/01/12 07:33:27;;;;;;;32.08;12.73;;;;;;;-1.28;100.00;102465.03;7394184;19;20021;-65
2024/01/12 07:35:56;;;;;;;35.97;13.38;;;;;;;-1.26;100.00;102470.25;7394409;19;20082;-64
2024/01/12 07:38:24;;;;;;;34.20;12.35;;;;;;;-1.28;100.00;102464.16;7394767;19;20100;-64
2024/01/12 07:40:53;;;;;;;36.65;12.07;;;;;;;-1.28;100.00;102465.03;7394526;19;20078;-64
2024/01/12 07:43:21;;;;;;;37.53;13.85;;;;;;;-1.27;100.00;102456.50;7392435;19;20014;-64
2024/01/12 07:45:50;;;;;;;42.35;14.05;;;;;;;-1.26;100.00;102457.38;7391959;19;20549;-64
2024/01/12 07:48:18;;;;;;;37.33;14.43;;;;;;;-1.25;100.00;102449.75;7394256;19;20074;-63
2024/01/12 07:50:49;;;;;;;42.38;16.17;;;;;;;-1.24;100.00;102448.97;7392445;19;20098;-64
2024/01/12 07:53:18;;;;;;;37.50;12.90;;;;;;;-1.25;100.00;102448.84;7394400;19;20015;-63
2024/01/12 07:55:47;;;;;;;27.92;11.02;;;;;;;-1.26;100.00;102453.13;7392818;19;20031;-64
2024/01/12 07:58:18;;;;;;;29.33;12.18;;;;;;;-1.29;100.00;102446.91;7394033;19;20010;-63
2024/01/12 08:00:46;;;;;;;25.95;11.27;;;;;;;-1.34;100.00;102438.94;7394117;19;20022;-64
2024/01/12 08:03:15;;;;;;;29.85;12.13;;;;;;;-1.36;100.00;102438.84;7397827;19;20094;-64
2024/01/12 08:05:50;;;;;;;26.50;11.95;;;;;;;-1.37;100.00;102443.94;7398196;19;20015;-64
2024/01/12 08:08:22;;;;;;;25.48;11.75;;;;;;;-1.37;100.00;102443.94;7400467;19;20011;-64
2024/01/12 08:10:50;;;;;;;23.38;11.27;;;;;;;-1.38;100.00;102448.22;7401741;19;20024;-62
2024/01/12 08:13:18;;;;;;;25.85;10.35;;;;;;;-1.39;100.00;102446.44;7400037;19;20458;-64
2024/01/12 08:15:47;;;;;;;20.50;9.48;;;;;;;-1.38;100.00;102444.72;7397838;19;20031;-65
2024/01/12 08:18:15;;;;;;;19.70;8.65;;;;;;;-1.38;100.00;102447.31;7397878;19;20011;-64
2024/01/12 08:20:44;;;;;;;22.38;9.73;;;;;;;-1.39;100.00;102435.22;7400466;19;20010;-64
2024/01/12 08:23:12;;;;;;;20.92;9.13;;;;;;;-1.41;100.00;102448.03;7399705;19;20018;-64
2024/01/12 08:25:43;;;;;;;20.25;9.27;;;;;;;-1.44;100.00;102437.56;7398410;19;20078;-64
2024/01/12 08:28:19;;;;;;;20.88;8.93;;;;;;;-1.43;100.00;102433.28;7400916;19;20018;-64
2024/01/12 08:30:47;;;;;;;19.10;9.13;;;;;;;-1.44;100.00;102446.97;7400187;19;20481;-63
2024/01/12 08:33:37;;;;;;;18.38;9.43;;;;;;;-1.44;100.00;102432.41;7399262;19;20025;-63
2024/01/12 08:36:06;;;;;;;21.48;9.20;;;;;;;-1.44;100.00;102431.50;7398891;19;20027;-63
2024/01/12 08:38:34;;;;;;;22.90;9.90;;;;;;;-1.44;100.00;102426.38;7400356;19;20033;-62
2024/01/12 08:41:06;;;;;;;22.75;10.43;;;;;;;-1.42;100.00;102435.94;7400038;19;20019;-64
2024/01/12 08:43:34;;;;;;;26.45;12.20;;;;;;;-1.43;100.00;102418.72;7398110;19;20031;-64
2024/01/12 08:46:03;;;;;;;17.75;9.98;;;;;;;-1.43;100.00;102426.44;7399737;19;20081;-64
2024/01/12 08:48:31;;;;;;;26.67;13.73;;;;;;;-1.42;100.00;102425.66;7399861;19;20015;-64
2024/01/12 08:50:59;;;;;;;21.55;9.75;;;;;;;-1.42;100.00;102437.66;7399871;19;20081;-64
2024/01/12 08:53:29;;;;;;;15.45;8.40;;;;;;;-1.42;100.00;102441.09;7397271;19;20015;-64
2024/01/12 08:55:57;;;;;;;17.38;9.93;;;;;;;-1.43;100.00;102434.16;7398757;19;20078;-64
2024/01/12 08:58:28;;;;;;;18.00;8.95;;;;;;;-1.40;100.00;102441.16;7398730;19;20508;-64
2024/01/12 09:00:56;;;;;;;20.13;9.00;;;;;;;-1.40;100.00;102433.44;7397485;19;20014;-64
2024/01/12 09:03:25;;;;;;;14.90;7.38;;;;;;;-1.40;100.00;102442.06;7396587;19;20077;-64
2024/01/12 09:05:54;;;;;;;14.77;7.25;;;;;;;-1.42;100.00;102437.66;7396525;19;20078;-64
2024/01/12 09:08:22;;;;;;;16.88;7.57;;;;;;;-1.43;100.00;102436.75;7398983;19;20014;-64
2024/01/12 09:10:50;;;;;;;16.05;8.48;;;;;;;-1.44;100.00;102431.50;7398976;19;20023;-67
2024/01/12 09:13:19;;;;;;;16.92;8.27;;;;;;;-1.44;100.00;102439.25;7398155;19;20083;-64
2024/01/12 09:15:50;;;;;;;16.20;8.27;;;;;;;-1.45;100.00;102443.50;7396275;19;20544;-65
2024/01/12 09:18:19;;;;;;;16.67;7.25;;;;;;;-1.46;100.00;102441.75;7398592;19;20485;-69
2024/01/12 09:20:54;;;;;;;19.30;9.10;;;;;;;-1.46;100.00;102444.31;7398301;19;20010;-65
2024/01/12 09:23:22;;;;;;;20.48;9.82;;;;;;;-1.45;100.00;102446.09;7396556;19;20081;-63
2024/01/12 09:25:58;;;;;;;15.60;9.32;;;;;;;-1.45;100.00;102445.19;7396278;19;20469;-64
2024/01/12 09:28:26;;;;;;;15.45;8.68;;;;;;;-1.43;100.00;102443.59;7398126;19;20031;-64
2024/01/12 09:30:57;;;;;;;18.67;9.45;;;;;;;-1.41;100.00;102434.28;7398487;19;20066;-64
2024/01/12 09:33:25;;;;;;;17.02;8.95;;;;;;;-1.38;100.00;102429.28;7397646;19;20094;-65
2024/01/12 09:35:54;;;;;;;19.92;8.82;;;;;;;-1.38;100.00;102431.84;7397940;19;20082;-65
2024/01/12 09:38:22;;;;;;;17.65;9.15;;;;;;;-1.37;100.00;102438.78;7396154;19;20078;-65
2024/01/12 09:40:51;;;;;;;18.98;8.85;;;;;;;-1.38;100.00;102419.88;7397544;19;20485;-65
2024/01/12 09:43:24;;;;;;;19.95;9.10;;;;;;;-1.38;100.00;102424.13;7397047;19;20039;-65
2024/01/12 09:45:53;;;;;;;20.67;9.38;;;;;;;-1.38;100.00;102421.56;7397521;19;20485;-64
2024/01/12 09:48:26;;;;;;;18.17;8.80;;;;;;;-1.40;100.00;102431.78;7397978;19;20082;-64
2024/01/12 09:50:57;;;;;;;20.25;9.25;;;;;;;-1.37;100.00;102438.78;7398302;19;20010;-64
2024/01/12 09:53:25;;;;;;;21.42;9.25;;;;;;;-1.37;100.00;102433.63;7396668;19;20014;-64
2024/01/12 09:55:54;;;;;;;22.60;10.73;;;;;;;-1.35;100.00;102439.75;7395767;19;20074;-64
2024/01/12 09:58:24;;;;;;;23.17;9.65;;;;;;;-1.35;100.00;102432.03;7396072;19;20548;-64
2024/01/12 10:00:53;;;;;;;21.17;10.02;;;;;;;-1.36;100.00;102430.25;7398610;19;20015;-64
2024/01/12 10:03:28;;;;;;;18.20;8.95;;;;;;;-1.37;100.00;102425.91;7396814;19;20018;-64
2024/01/12 10:05:56;;;;;;;;;;;;;;;-1.37;100.00;102419.06;7396157;19;20374;-65
2024/01/12 10:08:24;;;;;;;19.42;8.40;;;;;;;-1.37;100.00;102413.03;7397313;19;19915;-65
2024/01/12 10:10:53;;;;;;;21.80;8.55;;;;;;;-1.38;100.00;102398.38;7395989;19;20074;-65
2024/01/12 10:13:22;;;;;;;22.33;9.57;;;;;;;-1.37;100.00;102395.00;7396936;19;20029;-65
2024/01/12 10:15:50;;;;;;;24.70;9.63;;;;;;;-1.36;100.00;102399.38;7397819;19;20082;-65
2024/01/12 10:18:19;;;;;;;24.75;10.60;;;;;;;-1.34;100.00;102403.78;7396525;19;20014;-65
2024/01/12 10:20:50;;;;;;;23.98;11.98;;;;;;;-1.32;100.00;102403.88;7397204;19;20018;-64
2024/01/12 10:23:22;;;;;;;22.48;9.65;;;;;;;-1.32;100.00;102398.72;7396755;19;20018;-65
2024/01/12 10:25:59;;;;;;;22.27;9.48;;;;;;;-1.29;100.00;102396.28;7394213;19;20420;-65
2024/01/12 10:28:29;;;;;;;22.73;9.75;;;;;;;-1.28;100.00;102397.19;7395477;19;20007;-65
2024/01/12 10:30:58;;;;;;;17.77;9.77;;;;;;;-1.30;100.00;102389.41;7396948;19;20018;-65
2024/01/12 10:33:27;;;;;;;21.80;9.73;;;;;;;-1.33;100.00;102384.97;7394678;19;20074;-66
2024/01/12 10:36:06;;;;;;;26.23;10.68;;;;;;;-1.33;100.00;102378.91;7397467;19;20082;-64
2024/01/12 10:38:38;;;;;;;22.27;10.55;;;;;;;-1.33;100.00;102384.97;7397515;19;20078;-64
2024/01/12 10:41:08;;;;;;;21.48;9.82;;;;;;;-1.33;100.00;102382.38;7396922;19;20006;-65
2024/01/12 10:43:39;;;;;;;26.20;11.52;;;;;;;-1.32;100.00;102383.25;7395900;19;20027;-65
2024/01/12 10:46:11;;;;;;;22.77;10.43;;;;;;;-1.31;100.00;102385.91;7396789;19;20014;-64
2024/01/12 10:48:48;;;;;;;22.35;10.63;;;;;;;-1.29;100.00;102388.56;7394567;19;20014;-64
2024/01/12 10:51:24;;;;;;;24.80;12.15;;;;;;;-1.29;100.00;102380.84;7395743;19;20006;-64
2024/01/12 10:54:02;;;;;;;26.55;11.18;;;;;;;-1.27;100.00;102384.38;7394251;19;20027;-65
2024/01/12 10:56:30;;;;;;;22.52;9.48;;;;;;;-1.27;100.00;102383.53;7395161;19;20421;-64
2024/01/12 10:58:59;;;;;;;23.75;10.35;;;;;;;-1.28;100.00;102380.03;7396057;19;20074;-64
2024/01/12 11:01:28;;;;;;;20.55;8.88;;;;;;;-1.28;100.00;102392.91;7396127;19;20032;-64
2024/01/12 11:03:56;;;;;;;20.67;9.55;;;;;;;-1.29;100.00;102391.13;7393894;19;20478;-64
2024/01/12 11:06:30;;;;;;;23.75;10.10;;;;;;;-1.29;100.00;102386.00;7395954;19;20031;-65
2024/01/12 11:08:59;;;;;;;21.70;10.80;;;;;;;-1.26;100.00;102382.69;7395100;19;20066;-64